Terminal Aerodrome Forecast
Issued by NWS Rapid City, SD

Home | Current Version | Previous Version | Graphics & Text | Print | Product List | Glossary On
Versions: 1 2 3 4 5 6 7 8 9 10 11 12 13 14 15 16 17
464
FTUS43 KUNR 162320
TAFRAP
TAF
KRAP 162320Z 1700/1724 13018G28KT P6SM SCT250
     FM170100 13010KT P6SM SCT250
     FM170600 14010KT P6SM SCT004
     FM171400 17010KT P6SM SCT020
     FM171800 36024G34KT 6SM -SHRA BKN015=

USA.gov is the U.S. government's official web portal to all federal, state and local government web resources and services.